createdAt,value
2019-03-25T00:01:13.092Z,30.60
2019-03-25T00:03:42.621Z,31.23
2019-03-25T00:06:12.091Z,30.53
2019-03-25T00:08:41.539Z,30.67
2019-03-25T00:11:11.374Z,31.20
2019-03-25T00:13:40.841Z,30.17
2019-03-25T00:16:10.333Z,31.00
2019-03-25T00:18:39.811Z,31.33
2019-03-25T00:21:09.282Z,28.53
2019-03-25T00:23:38.744Z,30.83
2019-03-25T00:26:08.226Z,29.37
2019-03-25T00:28:37.680Z,28.13
2019-03-25T00:31:07.150Z,28.23
2019-03-25T00:33:36.961Z,26.73
2019-03-25T00:36:06.422Z,27.83
2019-03-25T00:38:35.873Z,26.10
2019-03-25T00:41:05.674Z,26.23
2019-03-25T00:43:35.130Z,26.87
2019-03-25T00:46:04.588Z,26.43
2019-03-25T00:48:34.060Z,25.73
2019-03-25T00:51:03.509Z,25.53
2019-03-25T00:53:32.994Z,24.53
2019-03-25T00:56:02.520Z,23.67
2019-03-25T00:58:32.005Z,24.23
2019-03-25T01:01:01.906Z,24.27
2019-03-25T01:03:31.396Z,23.30
2019-03-25T01:06:01.042Z,22.23
2019-03-25T01:08:31.657Z,21.50
2019-03-25T01:11:03.785Z,22.10
2019-03-25T01:13:33.261Z,21.10
2019-03-25T01:16:03.036Z,21.27
2019-03-25T01:18:32.518Z,21.97
2019-03-25T01:21:02.253Z,21.93
2019-03-25T01:23:31.729Z,20.23
2019-03-25T01:26:01.197Z,20.83
2019-03-25T01:28:30.827Z,20.00
2019-03-25T01:31:00.749Z,18.00
2019-03-25T01:33:30.229Z,20.67
2019-03-25T01:35:59.654Z,18.63
2019-03-25T01:38:29.157Z,20.27
2019-03-25T01:40:58.629Z,17.80
2019-03-25T01:43:28.097Z,19.27
2019-03-25T01:45:57.619Z,17.23
2019-03-25T01:48:27.095Z,17.57
2019-03-25T01:50:56.843Z,17.30
2019-03-25T01:53:26.306Z,17.10
2019-03-25T01:55:55.767Z,16.40
2019-03-25T01:58:25.233Z,16.77
2019-03-25T02:00:54.971Z,18.10
2019-03-25T02:03:25.022Z,16.30
2019-03-25T02:05:54.588Z,17.13
2019-03-25T02:08:24.440Z,17.73
2019-03-25T02:10:54.323Z,18.13
2019-03-25T02:13:23.882Z,16.83
2019-03-25T02:15:53.738Z,19.70
2019-03-25T02:18:23.658Z,17.77
2019-03-25T02:20:53.392Z,19.23
2019-03-25T02:23:23.155Z,16.60
2019-03-25T02:25:52.885Z,18.30
2019-03-25T02:28:22.734Z,19.93
2019-03-25T02:30:52.350Z,17.50
2019-03-25T02:33:22.203Z,19.10
2019-03-25T02:35:51.820Z,18.60
2019-03-25T02:38:21.767Z,18.03
2019-03-25T02:40:51.582Z,19.40
2019-03-25T02:43:21.597Z,18.93
2019-03-25T02:45:51.326Z,18.77
2019-03-25T02:48:20.968Z,19.07
2019-03-25T02:50:50.511Z,18.73
2019-03-25T02:53:19.964Z,18.00
2019-03-25T02:55:49.698Z,17.60
2019-03-25T02:58:19.239Z,18.50
2019-03-25T03:00:48.704Z,19.63
2019-03-25T03:03:18.579Z,20.17
2019-03-25T03:05:48.319Z,19.70
2019-03-25T03:08:18.150Z,18.33
2019-03-25T03:10:47.885Z,20.70
2019-03-25T03:13:17.771Z,19.47
2019-03-25T03:15:47.396Z,20.73
2019-03-25T03:18:16.876Z,19.83
2019-03-25T03:20:46.499Z,20.43
2019-03-25T03:23:16.016Z,18.97
2019-03-25T03:25:57.101Z,19.30
2019-03-25T03:28:16.896Z,21.40
2019-03-25T03:30:46.421Z,20.03
2019-03-25T03:33:15.902Z,19.97
2019-03-25T03:35:46.672Z,19.63
2019-03-25T03:38:16.535Z,20.17
2019-03-25T03:40:45.985Z,21.93
2019-03-25T03:43:15.781Z,20.00
2019-03-25T03:45:45.256Z,19.87
2019-03-25T03:48:14.711Z,19.07
2019-03-25T03:50:44.401Z,22.70
2019-03-25T03:53:13.871Z,23.87
2019-03-25T03:55:43.332Z,17.23
2019-03-25T03:58:12.912Z,17.07
2019-03-25T04:00:42.363Z,17.00
2019-03-25T04:03:11.848Z,15.67
2019-03-25T04:05:41.296Z,15.83
2019-03-25T04:08:11.014Z,15.90
2019-03-25T04:10:40.800Z,16.97
2019-03-25T04:13:10.358Z,14.33
2019-03-25T04:15:40.217Z,16.00
2019-03-25T04:18:09.671Z,15.33
2019-03-25T04:20:39.129Z,16.73
2019-03-25T04:23:08.604Z,15.73
2019-03-25T04:25:38.066Z,16.47
2019-03-25T04:28:07.540Z,14.07
2019-03-25T04:30:36.993Z,17.07
2019-03-25T04:33:06.463Z,14.57
2019-03-25T04:35:35.923Z,15.60
2019-03-25T04:38:05.513Z,14.53
2019-03-25T04:40:35.931Z,19.20
2019-03-25T04:43:05.693Z,16.77
2019-03-25T04:45:35.158Z,16.73
2019-03-25T04:48:04.607Z,19.50
2019-03-25T04:50:34.246Z,17.97
2019-03-25T04:53:08.360Z,18.50
2019-03-25T04:55:37.813Z,18.30
2019-03-25T04:58:07.303Z,20.97
2019-03-25T05:00:37.040Z,19.73
2019-03-25T05:03:07.098Z,18.13
2019-03-25T05:05:36.739Z,19.90
2019-03-25T05:08:06.253Z,18.40
2019-03-25T05:10:35.705Z,16.87
2019-03-25T05:13:05.190Z,19.43
2019-03-25T05:15:34.930Z,17.57
2019-03-25T05:18:04.460Z,18.93
2019-03-25T05:20:33.913Z,18.43
2019-03-25T05:23:03.663Z,17.77
2019-03-25T05:25:33.117Z,15.73
2019-03-25T05:28:02.576Z,16.77
2019-03-25T05:30:32.038Z,15.83
2019-03-25T05:33:01.489Z,16.13
2019-03-25T05:35:31.271Z,16.27
2019-03-25T05:38:00.728Z,14.90
2019-03-25T05:40:30.200Z,14.83
2019-03-25T05:42:59.660Z,14.47
2019-03-25T05:45:29.131Z,13.60
2019-03-25T05:47:58.922Z,14.43
2019-03-25T05:50:30.020Z,11.67
2019-03-25T05:52:59.474Z,11.37
2019-03-25T05:55:28.928Z,10.57
2019-03-25T05:57:58.846Z,11.43
2019-03-25T06:00:29.959Z,11.47
2019-03-25T06:02:59.403Z,11.17
2019-03-25T06:05:28.866Z,10.27
2019-03-25T06:07:58.339Z,11.17
2019-03-25T06:10:27.778Z,9.57
2019-03-25T06:12:57.556Z,9.70
2019-03-25T06:15:27.019Z,10.70
2019-03-25T06:17:56.472Z,9.47
2019-03-25T06:20:25.928Z,9.47
2019-03-25T06:22:55.394Z,9.93
2019-03-25T06:25:24.850Z,9.53
2019-03-25T06:27:54.444Z,8.83
2019-03-25T06:30:23.972Z,9.70
2019-03-25T06:32:58.307Z,9.70
2019-03-25T06:35:35.482Z,9.30
2019-03-25T06:38:09.606Z,9.00
2019-03-25T06:40:45.903Z,9.13
2019-03-25T06:43:17.066Z,8.40
2019-03-25T06:45:53.885Z,8.67
2019-03-25T06:48:30.046Z,7.93
2019-03-25T06:51:07.009Z,8.90
2019-03-25T06:53:42.624Z,7.53
2019-03-25T06:56:21.295Z,8.07
2019-03-25T06:58:57.255Z,6.60
2019-03-25T07:01:50.875Z,6.50
2019-03-25T07:04:28.305Z,6.70
2019-03-25T07:06:59.656Z,6.17
2019-03-25T07:09:37.894Z,6.20
2019-03-25T07:12:30.693Z,5.97
2019-03-25T07:15:06.323Z,6.13
2019-03-25T07:17:46.369Z,5.60
2019-03-25T07:20:29.765Z,5.03
2019-03-25T07:22:59.292Z,5.40
2019-03-25T07:25:32.265Z,5.00
2019-03-25T07:28:05.232Z,7.17
2019-03-25T07:30:36.468Z,6.53
2019-03-25T07:33:15.499Z,6.80
2019-03-25T07:35:49.483Z,6.93
2019-03-25T07:38:28.752Z,5.83
2019-03-25T07:41:05.271Z,5.83
2019-03-25T07:43:43.790Z,5.73
2019-03-25T07:46:14.832Z,6.40
2019-03-25T07:48:48.238Z,6.43
2019-03-25T07:51:19.727Z,6.93
2019-03-25T07:54:09.257Z,7.67
2019-03-25T07:56:32.613Z,6.90
2019-03-25T07:59:05.960Z,6.97
2019-03-25T08:01:38.964Z,6.23
2019-03-25T08:04:20.730Z,7.50
2019-03-25T08:06:54.025Z,6.97
2019-03-25T08:09:32.702Z,6.83
2019-03-25T08:12:13.498Z,7.07
2019-03-25T08:14:46.168Z,7.27
2019-03-25T08:17:27.537Z,7.40
2019-03-25T08:20:10.642Z,7.70
2019-03-25T08:22:54.348Z,7.43
2019-03-25T08:25:32.546Z,7.93
2019-03-25T08:28:08.288Z,8.23
2019-03-25T08:30:50.821Z,8.40
2019-03-25T08:33:20.323Z,12.00
2019-03-25T08:35:55.801Z,12.00
2019-03-25T08:38:36.332Z,14.60
2019-03-25T08:41:05.857Z,13.07
2019-03-25T08:43:35.324Z,14.83
2019-03-25T08:46:05.116Z,15.17
2019-03-25T08:48:34.593Z,12.93
2019-03-25T08:51:04.061Z,14.00
2019-03-25T08:53:33.527Z,13.60
2019-03-25T08:56:03.082Z,14.67
2019-03-25T08:58:32.522Z,13.23
2019-03-25T09:01:02.442Z,16.00
2019-03-25T09:03:31.893Z,16.37
2019-03-25T09:06:00.963Z,17.30
2019-03-25T09:08:30.409Z,16.60
2019-03-25T09:10:59.868Z,19.07
2019-03-25T09:13:29.903Z,18.97
2019-03-25T09:15:59.385Z,18.90
2019-03-25T09:18:28.827Z,21.10
2019-03-25T09:20:58.351Z,17.97
2019-03-25T09:23:27.807Z,19.50
2019-03-25T09:25:57.259Z,18.43
2019-03-25T09:28:26.709Z,17.63
2019-03-25T09:30:59.342Z,18.47
2019-03-25T09:33:28.786Z,16.43
2019-03-25T09:35:58.363Z,19.90
2019-03-25T09:38:27.773Z,15.17
2019-03-25T09:40:57.241Z,16.60
2019-03-25T09:43:26.695Z,14.67
2019-03-25T09:45:56.151Z,13.80
2019-03-25T09:48:25.595Z,12.87
2019-03-25T09:50:55.050Z,12.87
2019-03-25T09:53:24.495Z,12.73
2019-03-25T09:55:54.004Z,12.50
2019-03-25T09:58:35.371Z,11.47
2019-03-25T10:00:54.898Z,10.80
2019-03-25T10:03:24.342Z,8.40
2019-03-25T10:05:53.796Z,9.53
2019-03-25T10:08:23.261Z,6.30
2019-03-25T10:10:52.745Z,7.03
2019-03-25T10:13:22.207Z,5.50
2019-03-25T10:15:51.679Z,5.10
2019-03-25T10:18:21.135Z,4.83
2019-03-25T10:20:50.583Z,4.73
2019-03-25T10:23:20.962Z,4.90
2019-03-25T10:25:50.403Z,5.63
2019-03-25T10:28:19.847Z,5.63
2019-03-25T10:30:49.320Z,6.73
2019-03-25T10:33:18.763Z,7.80
2019-03-25T10:35:48.484Z,7.90
2019-03-25T10:38:19.747Z,7.43
2019-03-25T10:40:49.604Z,6.47
2019-03-25T10:43:19.038Z,6.60
2019-03-25T10:45:48.496Z,5.40
2019-03-25T10:48:17.935Z,6.20
2019-03-25T10:50:47.370Z,5.10
2019-03-25T10:53:17.062Z,5.00
2019-03-25T10:55:46.504Z,5.20
2019-03-25T10:58:15.994Z,4.67
2019-03-25T11:00:45.718Z,4.67
2019-03-25T11:03:15.176Z,4.77
2019-03-25T11:05:44.778Z,4.63
2019-03-25T11:08:14.463Z,4.63
2019-03-25T11:10:43.907Z,4.40
2019-03-25T11:13:13.938Z,4.00
2019-03-25T11:15:43.396Z,3.53
2019-03-25T11:18:12.873Z,3.40
2019-03-25T11:20:42.342Z,2.70
2019-03-25T11:23:11.809Z,2.57
2019-03-25T11:25:41.257Z,2.50
2019-03-25T11:28:12.323Z,2.60
2019-03-25T11:30:56.004Z,2.80
2019-03-25T11:33:26.992Z,4.17
2019-03-25T11:35:56.445Z,3.63
2019-03-25T11:38:25.887Z,3.07
2019-03-25T11:40:55.396Z,3.07
2019-03-25T11:43:24.848Z,3.10
2019-03-25T11:45:54.357Z,2.40
2019-03-25T11:48:24.128Z,2.93
2019-03-25T11:50:53.839Z,3.10
2019-03-25T11:53:23.352Z,2.20
2019-03-25T11:55:52.874Z,2.43
2019-03-25T11:58:22.320Z,2.87
2019-03-25T12:00:51.792Z,3.00
2019-03-25T12:03:21.317Z,3.30
2019-03-25T12:05:50.778Z,2.90
2019-03-25T12:08:20.227Z,2.63
2019-03-25T12:10:49.987Z,3.03
2019-03-25T12:13:19.453Z,2.20
2019-03-25T12:15:48.894Z,2.50
2019-03-25T12:18:18.722Z,2.40
2019-03-25T12:20:48.157Z,2.60
2019-03-25T12:23:25.981Z,2.53
2019-03-25T12:25:48.761Z,2.60
2019-03-25T12:28:20.536Z,2.30
2019-03-25T12:30:50.127Z,2.30
2019-03-25T12:33:19.916Z,2.50
2019-03-25T12:35:49.408Z,2.60
2019-03-25T12:38:18.865Z,2.57
2019-03-25T12:40:48.315Z,2.10
2019-03-25T12:43:17.764Z,2.30
2019-03-25T12:45:47.210Z,2.10
2019-03-25T12:48:16.746Z,2.23
2019-03-25T12:50:46.204Z,2.20
2019-03-25T12:53:15.987Z,2.20
2019-03-25T12:55:45.459Z,2.40
2019-03-25T12:58:14.913Z,2.70
2019-03-25T13:00:44.907Z,2.27
2019-03-25T13:03:14.369Z,2.30
2019-03-25T13:05:43.872Z,2.30
2019-03-25T13:08:13.319Z,2.23
2019-03-25T13:10:42.771Z,1.93
2019-03-25T13:13:12.540Z,2.33
2019-03-25T13:15:41.973Z,2.20
2019-03-25T13:18:11.424Z,2.13
2019-03-25T13:20:40.868Z,1.77
2019-03-25T13:23:10.330Z,1.73
2019-03-25T13:25:39.782Z,1.70
2019-03-25T13:28:09.245Z,2.30
2019-03-25T13:30:38.683Z,1.67
2019-03-25T13:33:08.196Z,2.03
2019-03-25T13:35:37.636Z,2.50
2019-03-25T13:38:07.105Z,2.07
2019-03-25T13:40:36.551Z,2.03
2019-03-25T13:43:06.012Z,2.33
2019-03-25T13:45:35.460Z,2.67
2019-03-25T13:48:04.914Z,2.03
2019-03-25T13:50:34.359Z,2.23
2019-03-25T13:53:03.835Z,1.90
2019-03-25T13:55:33.266Z,2.00
2019-03-25T13:58:02.732Z,1.87
2019-03-25T14:00:36.892Z,1.87
2019-03-25T14:03:06.345Z,2.10
2019-03-25T14:05:36.132Z,1.90
2019-03-25T14:08:05.648Z,2.20
2019-03-25T14:10:35.074Z,2.50
2019-03-25T14:13:04.781Z,2.30
2019-03-25T14:15:34.211Z,3.10
2019-03-25T14:18:03.666Z,3.10
2019-03-25T14:20:33.100Z,5.33
2019-03-25T14:23:02.875Z,6.10
2019-03-25T14:25:32.328Z,4.80
2019-03-25T14:28:02.003Z,4.70
2019-03-25T14:30:32.003Z,4.97
2019-03-25T14:33:01.453Z,4.53
2019-03-25T14:35:30.901Z,4.10
2019-03-25T14:38:00.335Z,3.37
2019-03-25T14:40:29.770Z,3.43
2019-03-25T14:42:59.496Z,3.67
2019-03-25T14:45:28.938Z,3.00
2019-03-25T14:47:58.747Z,3.33
2019-03-25T14:50:28.185Z,3.63
2019-03-25T14:52:57.893Z,3.50
2019-03-25T14:55:27.345Z,3.73
2019-03-25T14:57:56.885Z,2.60
2019-03-25T15:00:27.814Z,2.13
2019-03-25T15:02:57.272Z,2.40
2019-03-25T15:05:26.922Z,2.50
2019-03-25T15:07:56.605Z,2.70
2019-03-25T15:10:26.023Z,3.00
2019-03-25T15:12:55.496Z,2.97
2019-03-25T15:15:24.926Z,2.80
2019-03-25T15:17:54.377Z,3.17
2019-03-25T15:20:23.831Z,2.97
2019-03-25T15:22:53.272Z,2.73
2019-03-25T15:25:22.718Z,3.47
2019-03-25T15:27:53.025Z,3.17
2019-03-25T15:30:22.514Z,2.77
2019-03-25T15:32:51.950Z,2.80
2019-03-25T15:35:21.425Z,2.70
2019-03-25T15:37:51.157Z,2.80
2019-03-25T15:40:21.052Z,2.83
2019-03-25T15:42:50.477Z,3.60
2019-03-25T15:45:19.945Z,3.70
2019-03-25T15:47:49.389Z,4.10
2019-03-25T15:50:18.912Z,3.90
2019-03-25T15:52:48.734Z,3.93
2019-03-25T15:55:18.231Z,3.70
2019-03-25T15:57:47.696Z,4.17
2019-03-25T16:00:21.289Z,4.40
2019-03-25T16:02:50.727Z,4.47
2019-03-25T16:05:20.179Z,4.03
2019-03-25T16:07:49.686Z,4.07
2019-03-25T16:10:19.337Z,4.00
2019-03-25T16:12:48.813Z,3.70
2019-03-25T16:15:38.856Z,4.33
2019-03-25T16:18:08.366Z,4.73
2019-03-25T16:20:37.903Z,4.23
2019-03-25T16:23:08.372Z,4.27
2019-03-25T16:25:37.826Z,4.73
2019-03-25T16:28:07.271Z,4.53
2019-03-25T16:30:36.749Z,4.60
2019-03-25T16:33:06.371Z,4.80
2019-03-25T16:35:35.834Z,4.17
2019-03-25T16:38:05.287Z,4.97
2019-03-25T16:40:34.740Z,4.03
2019-03-25T16:43:04.194Z,2.40
2019-03-25T16:45:33.664Z,2.37
2019-03-25T16:48:03.112Z,1.80
2019-03-25T16:50:32.591Z,2.27
2019-03-25T16:53:02.028Z,3.80
2019-03-25T16:55:31.489Z,3.50
2019-03-25T16:58:00.934Z,3.00
2019-03-25T17:00:30.381Z,3.40
2019-03-25T17:02:59.895Z,3.40
2019-03-25T17:05:29.692Z,3.80
2019-03-25T17:07:59.112Z,3.57
2019-03-25T17:10:28.584Z,3.00
2019-03-25T17:12:58.032Z,2.73
2019-03-25T17:15:27.507Z,4.17
2019-03-25T17:17:56.956Z,3.60
2019-03-25T17:20:26.719Z,3.60
2019-03-25T17:22:56.167Z,3.80
2019-03-25T17:25:25.915Z,3.37
2019-03-25T17:27:55.481Z,3.90
2019-03-25T17:30:25.182Z,4.40
2019-03-25T17:32:54.690Z,4.10
2019-03-25T17:35:24.195Z,3.00
2019-03-25T17:37:54.068Z,3.60
2019-03-25T17:40:23.562Z,3.60
2019-03-25T17:42:52.984Z,3.87
2019-03-25T17:45:22.455Z,5.63
2019-03-25T17:47:51.895Z,5.17
2019-03-25T17:50:21.352Z,4.33
2019-03-25T17:52:50.814Z,4.90
2019-03-25T17:55:20.266Z,5.17
2019-03-25T17:57:49.722Z,6.03
2019-03-25T18:00:25.410Z,14.27
2019-03-25T18:02:54.896Z,16.97
2019-03-25T18:05:24.373Z,15.13
2019-03-25T18:07:53.829Z,9.73
2019-03-25T18:10:23.284Z,15.17
2019-03-25T18:12:52.767Z,13.60
2019-03-25T18:15:22.226Z,9.57
2019-03-25T18:17:51.726Z,9.87
2019-03-25T18:20:21.214Z,9.00
2019-03-25T18:22:50.683Z,8.30
2019-03-25T18:25:20.307Z,13.20
2019-03-25T18:27:50.029Z,14.43
2019-03-25T18:30:28.471Z,10.20
2019-03-25T18:32:57.929Z,12.30
2019-03-25T18:35:28.273Z,9.57
2019-03-25T18:37:57.799Z,10.53
2019-03-25T18:40:27.283Z,10.73
2019-03-25T18:42:57.103Z,8.87
2019-03-25T18:45:26.572Z,9.73
2019-03-25T18:47:56.252Z,9.97
2019-03-25T18:50:25.704Z,8.43
2019-03-25T18:52:56.907Z,9.73
2019-03-25T18:55:26.566Z,9.63
2019-03-25T18:57:56.212Z,9.50
2019-03-25T19:00:33.323Z,8.43
2019-03-25T19:03:03.142Z,9.60
2019-03-25T19:05:32.884Z,9.47
2019-03-25T19:08:04.137Z,9.17
2019-03-25T19:10:33.739Z,9.30
2019-03-25T19:13:03.226Z,9.73
2019-03-25T19:15:32.972Z,9.13
2019-03-25T19:18:02.416Z,9.33
2019-03-25T19:20:31.906Z,9.53
2019-03-25T19:23:01.705Z,9.63
2019-03-25T19:25:31.155Z,7.30
2019-03-25T19:28:00.596Z,8.60
2019-03-25T19:30:30.062Z,9.13
2019-03-25T19:32:59.518Z,8.30
2019-03-25T19:35:30.189Z,7.70
2019-03-25T19:37:59.833Z,8.87
2019-03-25T19:40:29.365Z,8.37
2019-03-25T19:42:58.776Z,9.63
2019-03-25T19:45:28.568Z,8.90
2019-03-25T19:47:58.055Z,9.10
2019-03-25T19:50:27.484Z,9.67
2019-03-25T19:52:56.933Z,8.50
2019-03-25T19:55:26.727Z,8.37
2019-03-25T19:57:56.173Z,9.63
2019-03-25T20:00:37.016Z,9.57
2019-03-25T20:03:06.734Z,9.27
2019-03-25T20:05:36.373Z,9.60
2019-03-25T20:08:06.456Z,11.00
2019-03-25T20:10:37.877Z,10.07
2019-03-25T20:13:07.541Z,9.63
2019-03-25T20:15:45.907Z,10.23
2019-03-25T20:18:08.289Z,10.97
2019-03-25T20:20:37.749Z,9.37
2019-03-25T20:23:07.544Z,10.20
2019-03-25T20:25:36.989Z,10.50
2019-03-25T20:28:06.549Z,10.33
2019-03-25T20:30:36.327Z,10.43
2019-03-25T20:33:05.943Z,11.53
2019-03-25T20:35:35.436Z,12.33
2019-03-25T20:38:04.865Z,11.67
2019-03-25T20:40:34.326Z,11.57
2019-03-25T20:43:03.787Z,11.67
2019-03-25T20:45:33.280Z,12.20
2019-03-25T20:48:02.745Z,12.07
2019-03-25T20:50:32.214Z,12.23
2019-03-25T20:53:01.683Z,12.50
2019-03-25T20:55:31.229Z,12.13
2019-03-25T20:58:04.520Z,11.63
2019-03-25T21:00:47.244Z,10.87
2019-03-25T21:03:16.910Z,9.83
2019-03-25T21:05:46.431Z,10.13
2019-03-25T21:08:16.160Z,9.90
2019-03-25T21:10:45.914Z,10.50
2019-03-25T21:13:15.374Z,9.53
2019-03-25T21:15:44.873Z,9.50
2019-03-25T21:18:14.629Z,9.43
2019-03-25T21:20:44.081Z,9.20
2019-03-25T21:23:13.884Z,9.90
2019-03-25T21:25:43.416Z,9.17
2019-03-25T21:28:12.896Z,11.10
2019-03-25T21:30:48.158Z,11.20
2019-03-25T21:33:14.439Z,10.63
2019-03-25T21:35:43.986Z,11.13
2019-03-25T21:38:13.446Z,10.87
2019-03-25T21:40:42.973Z,9.83
2019-03-25T21:43:12.518Z,9.80
2019-03-25T21:45:42.059Z,10.80
2019-03-25T21:48:11.517Z,9.70
2019-03-25T21:50:41.015Z,9.87
2019-03-25T21:53:10.488Z,9.63
2019-03-25T21:55:39.937Z,9.43
2019-03-25T21:58:09.445Z,9.80
2019-03-25T22:00:38.887Z,10.50
2019-03-25T22:03:12.109Z,10.73
2019-03-25T22:05:39.596Z,11.27
2019-03-25T22:08:09.065Z,10.43
2019-03-25T22:10:38.786Z,10.27
2019-03-25T22:13:08.256Z,10.20
2019-03-25T22:15:37.714Z,11.07
2019-03-25T22:18:07.169Z,9.97
2019-03-25T22:20:36.632Z,11.43
2019-03-25T22:23:06.092Z,10.73
2019-03-25T22:25:35.549Z,10.17
2019-03-25T22:28:05.002Z,11.07
2019-03-25T22:30:34.454Z,11.30
2019-03-25T22:33:03.924Z,10.80
2019-03-25T22:35:33.368Z,11.27
2019-03-25T22:38:03.209Z,10.20
2019-03-25T22:40:32.656Z,9.73
2019-03-25T22:43:02.105Z,9.10
2019-03-25T22:45:31.612Z,9.43
2019-03-25T22:48:01.436Z,9.97
2019-03-25T22:50:31.926Z,11.20
2019-03-25T22:53:01.667Z,10.13
2019-03-25T22:55:31.127Z,10.47
2019-03-25T22:58:00.619Z,10.90
2019-03-25T23:00:41.082Z,12.13
2019-03-25T23:03:10.567Z,12.07
2019-03-25T23:05:40.115Z,12.77
2019-03-25T23:08:09.585Z,12.43
2019-03-25T23:10:39.033Z,12.43
2019-03-25T23:13:08.491Z,12.40
2019-03-25T23:15:38.274Z,14.17
2019-03-25T23:18:07.808Z,12.97
2019-03-25T23:20:38.163Z,12.63
2019-03-25T23:23:07.625Z,13.97
2019-03-25T23:25:37.086Z,13.20
2019-03-25T23:28:08.049Z,12.67
2019-03-25T23:30:37.504Z,14.17
2019-03-25T23:33:06.988Z,15.27
2019-03-25T23:35:36.438Z,14.00
2019-03-25T23:38:05.895Z,12.70
2019-03-25T23:40:35.348Z,13.40
2019-03-25T23:43:05.097Z,14.00
2019-03-25T23:45:34.534Z,14.07
2019-03-25T23:48:04.024Z,14.80
2019-03-25T23:50:33.494Z,17.23
2019-03-25T23:53:02.948Z,16.37
2019-03-25T23:55:32.407Z,15.33
2019-03-25T23:58:02.221Z,16.63
